createdAt,value
2023-06-14T00:00:55.783Z,186.85
2023-06-14T00:01:56.860Z,186.54
2023-06-14T00:02:57.190Z,186.77
2023-06-14T00:03:57.172Z,195.30
2023-06-14T00:04:56.980Z,193.77
2023-06-14T00:05:57.077Z,188.40
2023-06-14T00:06:57.100Z,187.51
2023-06-14T00:07:57.211Z,187.17
2023-06-14T00:08:57.194Z,192.27
2023-06-14T00:09:57.230Z,187.80
2023-06-14T00:10:57.312Z,185.17
2023-06-14T00:11:57.363Z,187.53
2023-06-14T00:12:56.383Z,185.24
2023-06-14T00:13:56.428Z,187.25
2023-06-14T00:14:56.489Z,188.82
2023-06-14T00:15:56.521Z,185.58
2023-06-14T00:16:56.608Z,189.68
2023-06-14T00:17:56.683Z,191.34
2023-06-14T00:18:57.657Z,190.29
2023-06-14T00:19:56.808Z,187.36
2023-06-14T00:20:57.738Z,191.09
2023-06-14T00:21:56.792Z,183.28
2023-06-14T00:22:56.886Z,186.49
2023-06-14T00:23:57.915Z,184.49
2023-06-14T00:24:57.941Z,186.39
2023-06-14T00:25:57.002Z,189.27
2023-06-14T00:26:58.082Z,184.16
2023-06-14T00:27:57.139Z,186.60
2023-06-14T00:28:58.140Z,182.74
2023-06-14T00:29:58.206Z,187.75
2023-06-14T00:30:58.254Z,188.80
2023-06-14T00:31:58.370Z,186.85
2023-06-14T00:32:57.399Z,188.56
2023-06-14T00:33:57.417Z,185.96
2023-06-14T00:34:57.533Z,189.64
2023-06-14T00:35:57.555Z,189.43
2023-06-14T00:36:58.568Z,182.56
2023-06-14T00:37:58.634Z,188.63
2023-06-14T00:38:57.675Z,189.40
2023-06-14T00:39:58.728Z,186.57
2023-06-14T00:40:58.776Z,181.22
2023-06-14T00:41:58.821Z,186.56
2023-06-14T00:42:58.864Z,191.37
2023-06-14T00:43:58.924Z,188.44
2023-06-14T00:44:58.976Z,183.76
2023-06-14T00:45:59.092Z,188.88
2023-06-14T00:46:59.236Z,185.12
2023-06-14T00:47:59.218Z,182.36
2023-06-14T00:48:59.225Z,190.13
2023-06-14T00:49:59.230Z,186.50
2023-06-14T00:50:59.343Z,186.59
2023-06-14T00:51:59.357Z,190.76
2023-06-14T00:52:59.405Z,182.08
2023-06-14T00:53:58.473Z,184.28
2023-06-14T00:54:59.526Z,185.93
2023-06-14T00:55:58.561Z,186.09
2023-06-14T00:56:59.610Z,190.95
2023-06-14T00:57:59.682Z,184.38
2023-06-14T00:58:59.722Z,188.09
2023-06-14T00:59:59.806Z,185.89
2023-06-14T01:00:58.828Z,186.18
2023-06-14T01:01:59.902Z,188.97
2023-06-14T01:03:00.031Z,182.11
2023-06-14T01:03:59.035Z,186.95
2023-06-14T01:05:00.048Z,186.68
2023-06-14T01:06:00.084Z,184.58
2023-06-14T01:07:00.193Z,183.98
2023-06-14T01:07:59.179Z,184.66
2023-06-14T01:09:00.204Z,186.31
2023-06-14T01:10:00.278Z,184.27
2023-06-14T01:10:59.305Z,183.54
2023-06-14T01:12:00.328Z,188.63
2023-06-14T01:13:00.403Z,185.24
2023-06-14T01:14:00.422Z,185.66
2023-06-14T01:14:59.457Z,185.77
2023-06-14T01:16:00.575Z,189.52
2023-06-14T01:17:00.569Z,181.23
2023-06-14T01:18:00.644Z,186.48
2023-06-14T01:19:00.676Z,186.67
2023-06-14T01:20:00.713Z,186.45
2023-06-14T01:21:00.758Z,186.53
2023-06-14T01:22:00.816Z,185.75
2023-06-14T01:22:59.911Z,181.11
2023-06-14T01:23:59.935Z,186.47
2023-06-14T01:25:00.948Z,188.41
2023-06-14T01:25:59.988Z,185.22
2023-06-14T01:27:00.011Z,185.33
2023-06-14T01:28:01.057Z,182.50
2023-06-14T01:29:01.105Z,188.65
2023-06-14T01:30:00.181Z,181.51
2023-06-14T01:31:01.181Z,184.01
2023-06-14T01:32:00.232Z,184.19
2023-06-14T01:33:00.340Z,187.72
2023-06-14T01:34:01.384Z,188.32
2023-06-14T01:35:01.492Z,184.44
2023-06-14T01:36:01.444Z,188.74
2023-06-14T01:37:01.489Z,186.76
2023-06-14T01:38:01.556Z,187.63
2023-06-14T01:39:01.561Z,186.40
2023-06-14T01:40:00.596Z,178.38
2023-06-14T01:41:01.667Z,187.48
2023-06-14T01:42:01.807Z,187.10
2023-06-14T01:43:00.769Z,186.04
2023-06-14T01:44:00.817Z,188.40
2023-06-14T01:45:01.850Z,184.88
2023-06-14T01:46:00.940Z,185.69
2023-06-14T01:47:01.957Z,183.45
2023-06-14T01:48:02.089Z,187.29
2023-06-14T01:49:02.026Z,183.69
2023-06-14T01:50:02.073Z,184.14
2023-06-14T01:51:01.110Z,186.91
2023-06-14T01:52:02.146Z,185.85
2023-06-14T01:53:02.250Z,187.74
2023-06-14T01:54:02.256Z,188.04
2023-06-14T01:55:02.287Z,185.38
2023-06-14T01:56:01.313Z,186.22
2023-06-14T01:57:02.348Z,186.02
2023-06-14T01:58:02.384Z,188.48
2023-06-14T01:59:01.425Z,187.21
2023-06-14T02:00:02.469Z,185.92
2023-06-14T02:01:02.541Z,186.86
2023-06-14T02:02:02.570Z,184.16
2023-06-14T02:03:02.639Z,183.82
2023-06-14T02:04:01.663Z,186.87
2023-06-14T02:05:01.700Z,186.85
2023-06-14T02:06:02.871Z,185.90
2023-06-14T02:07:01.849Z,183.76
2023-06-14T02:08:01.866Z,184.36
2023-06-14T02:09:01.896Z,183.64
2023-06-14T02:10:02.962Z,184.97
2023-06-14T02:11:02.944Z,186.12
2023-06-14T02:12:02.943Z,183.57
2023-06-14T02:13:02.975Z,181.93
2023-06-14T02:14:02.977Z,184.54
2023-06-14T02:15:02.022Z,186.73
2023-06-14T02:16:02.056Z,185.03
2023-06-14T02:17:02.081Z,185.22
2023-06-14T02:18:03.182Z,185.01
2023-06-14T02:19:03.143Z,186.12
2023-06-14T02:20:03.149Z,183.40
2023-06-14T02:21:02.193Z,182.16
2023-06-14T02:22:03.227Z,183.24
2023-06-14T02:23:02.365Z,183.51
2023-06-14T02:24:03.366Z,184.46
2023-06-14T02:25:03.460Z,182.92
2023-06-14T02:26:03.410Z,182.62
2023-06-14T02:27:03.310Z,183.02
2023-06-14T02:28:03.386Z,183.08
2023-06-14T02:29:03.385Z,183.83
2023-06-14T02:30:03.370Z,181.80
2023-06-14T02:31:03.439Z,183.21
2023-06-14T02:32:03.576Z,184.21
2023-06-14T02:33:03.530Z,183.12
2023-06-14T02:34:03.638Z,183.44
2023-06-14T02:35:02.534Z,183.69
2023-06-14T02:36:03.554Z,183.13
2023-06-14T02:37:03.628Z,183.30
2023-06-14T02:38:03.635Z,179.54
2023-06-14T02:39:03.650Z,182.90
2023-06-14T02:40:03.664Z,181.18
2023-06-14T02:41:03.683Z,182.59
2023-06-14T02:42:02.715Z,181.87
2023-06-14T02:43:03.725Z,182.47
2023-06-14T02:44:03.711Z,183.22
2023-06-14T02:45:03.739Z,182.80
2023-06-14T02:46:03.760Z,182.39
2023-06-14T02:47:02.800Z,183.46
2023-06-14T02:48:03.957Z,181.65
2023-06-14T02:49:03.908Z,182.74
2023-06-14T02:50:02.862Z,181.92
2023-06-14T02:51:02.886Z,181.18
2023-06-14T02:52:02.909Z,182.62
2023-06-14T02:53:02.928Z,182.55
2023-06-14T02:54:03.963Z,180.33
2023-06-14T02:55:03.971Z,179.56
2023-06-14T02:56:04.011Z,180.47
2023-06-14T02:57:04.029Z,180.21
2023-06-14T02:58:04.114Z,180.42
2023-06-14T02:59:03.098Z,180.66
2023-06-14T03:00:03.121Z,180.20
2023-06-14T03:01:04.208Z,180.39
2023-06-14T03:02:04.213Z,180.79
2023-06-14T03:03:04.253Z,179.08
2023-06-14T03:04:04.418Z,180.18
2023-06-14T03:05:03.223Z,179.79
2023-06-14T03:06:03.251Z,180.49
2023-06-14T03:07:03.305Z,180.84
2023-06-14T03:08:03.361Z,179.15
2023-06-14T03:09:04.406Z,179.17
2023-06-14T03:10:04.435Z,179.11
2023-06-14T03:11:04.441Z,176.89
2023-06-14T03:12:04.433Z,179.10
2023-06-14T03:13:04.469Z,178.71
2023-06-14T03:14:04.500Z,177.72
2023-06-14T03:15:04.521Z,178.89
2023-06-14T03:16:04.514Z,178.44
2023-06-14T03:17:04.605Z,179.27
2023-06-14T03:18:04.697Z,179.34
2023-06-14T03:19:04.647Z,177.53
2023-06-14T03:20:03.674Z,178.53
2023-06-14T03:21:04.665Z,177.27
2023-06-14T03:22:04.703Z,177.45
2023-06-14T03:23:04.758Z,177.89
2023-06-14T03:24:04.933Z,176.72
2023-06-14T03:25:04.787Z,176.87
2023-06-14T03:26:04.810Z,178.35
2023-06-14T03:27:04.834Z,177.34
2023-06-14T03:28:03.824Z,178.47
2023-06-14T03:29:04.850Z,175.15
2023-06-14T03:30:03.885Z,176.26
2023-06-14T03:31:05.589Z,176.73
2023-06-14T03:32:04.882Z,176.07
2023-06-14T03:33:03.959Z,175.31
2023-06-14T03:34:04.932Z,175.28
2023-06-14T03:35:04.953Z,178.29
2023-06-14T03:36:04.949Z,176.99
2023-06-14T03:37:04.954Z,176.54
2023-06-14T03:38:04.970Z,175.44
2023-06-14T03:39:03.991Z,174.61
2023-06-14T03:40:04.993Z,175.46
2023-06-14T03:41:05.044Z,174.41
2023-06-14T03:42:05.060Z,174.40
2023-06-14T03:43:04.086Z,175.82
2023-06-14T03:44:05.078Z,174.04
2023-06-14T03:45:05.119Z,175.15
2023-06-14T03:46:05.141Z,175.50
2023-06-14T03:47:04.129Z,173.54
2023-06-14T03:48:05.211Z,173.28
2023-06-14T03:49:05.165Z,174.09
2023-06-14T03:50:05.227Z,175.23
2023-06-14T03:51:04.188Z,173.23
2023-06-14T03:52:05.203Z,174.27
2023-06-14T03:53:05.221Z,172.56
2023-06-14T03:54:17.801Z,172.54
2023-06-14T03:56:04.225Z,172.75
2023-06-14T03:57:05.209Z,173.44
2023-06-14T03:58:05.216Z,174.23
2023-06-14T03:59:04.214Z,173.81
2023-06-14T04:00:05.210Z,174.35
2023-06-14T04:01:05.207Z,174.35
2023-06-14T04:02:05.208Z,174.05
2023-06-14T04:03:05.257Z,173.33
2023-06-14T04:04:04.224Z,173.33
2023-06-14T04:05:05.222Z,174.26
2023-06-14T04:06:05.189Z,171.98
2023-06-14T04:07:04.164Z,171.82
2023-06-14T04:08:05.160Z,171.17
2023-06-14T04:09:05.152Z,171.58
2023-06-14T04:10:05.130Z,172.30
2023-06-14T04:11:05.154Z,169.47
2023-06-14T04:12:05.121Z,169.93
2023-06-14T04:13:05.128Z,168.94
2023-06-14T04:14:04.106Z,169.59
2023-06-14T04:15:18.890Z,171.75
2023-06-14T04:16:05.119Z,171.91
2023-06-14T04:17:05.080Z,172.33
2023-06-14T04:18:04.147Z,172.84
2023-06-14T04:19:05.070Z,170.97
2023-06-14T04:20:05.129Z,171.93
2023-06-14T04:21:05.053Z,170.00
2023-06-14T04:22:05.061Z,167.32
2023-06-14T04:23:04.036Z,168.09
2023-06-14T04:24:05.076Z,166.92
2023-06-14T04:25:05.752Z,170.08
2023-06-14T04:26:05.053Z,168.75
2023-06-14T04:27:05.020Z,167.69
2023-06-14T04:28:05.016Z,168.11
2023-06-14T04:29:04.039Z,167.72
2023-06-14T04:30:05.086Z,167.72
2023-06-14T04:31:04.008Z,168.02
2023-06-14T04:32:05.000Z,166.54
2023-06-14T04:33:05.083Z,167.76
2023-06-14T04:34:05.018Z,163.54
2023-06-14T04:35:05.055Z,167.19
2023-06-14T04:36:04.964Z,168.09
2023-06-14T04:37:04.962Z,165.32
2023-06-14T04:38:04.993Z,164.53
2023-06-14T04:39:03.954Z,164.65
2023-06-14T04:40:04.946Z,164.22
2023-06-14T04:41:04.953Z,165.56
2023-06-14T04:42:05.014Z,163.32
2023-06-14T04:43:04.981Z,164.34
2023-06-14T04:44:04.982Z,162.18
2023-06-14T04:45:04.984Z,163.63
2023-06-14T04:46:05.013Z,163.81
2023-06-14T04:47:05.002Z,162.36
2023-06-14T04:48:05.044Z,160.24
2023-06-14T04:49:05.028Z,163.21
2023-06-14T04:50:04.036Z,160.68
2023-06-14T04:51:04.029Z,161.51
2023-06-14T04:52:05.060Z,158.14
2023-06-14T04:53:05.102Z,146.35
2023-06-14T04:54:05.143Z,88.24
2023-06-14T04:55:04.178Z,69.21
2023-06-14T04:56:05.313Z,42.72
2023-06-14T04:57:05.241Z,25.00
2023-06-14T04:58:05.275Z,26.99
2023-06-14T04:59:05.317Z,25.00
2023-06-14T05:00:05.373Z,24.60
2023-06-14T05:01:05.421Z,25.14
2023-06-14T05:02:05.410Z,27.27
2023-06-14T05:03:04.557Z,27.58
2023-06-14T05:04:05.609Z,25.00
2023-06-14T05:05:04.526Z,25.91
2023-06-14T05:06:05.577Z,25.00
2023-06-14T05:07:05.563Z,24.26
2023-06-14T05:08:04.608Z,26.14
2023-06-14T05:09:05.632Z,26.59
2023-06-14T05:10:05.656Z,25.82
2023-06-14T05:11:05.687Z,25.53
2023-06-14T05:12:05.709Z,24.19
2023-06-14T05:13:05.748Z,25.27
2023-06-14T05:14:05.787Z,25.00
2023-06-14T05:15:05.809Z,25.21
2023-06-14T05:16:05.894Z,26.64
2023-06-14T05:17:04.867Z,26.35
2023-06-14T05:18:06.000Z,25.00
2023-06-14T05:19:05.947Z,28.25
2023-06-14T05:20:06.011Z,27.65
2023-06-14T05:21:06.029Z,28.17
2023-06-14T05:22:05.144Z,27.71
2023-06-14T05:23:05.135Z,26.86
2023-06-14T05:24:06.263Z,28.41
2023-06-14T05:25:06.242Z,26.67
2023-06-14T05:26:06.275Z,24.87
2023-06-14T05:27:06.358Z,25.94
2023-06-14T05:28:06.374Z,25.75
2023-06-14T05:29:05.406Z,25.40
2023-06-14T05:30:05.475Z,27.55
2023-06-14T05:31:05.537Z,29.86
2023-06-14T05:32:06.568Z,28.88
2023-06-14T05:33:06.602Z,29.14
2023-06-14T05:34:06.681Z,30.48
2023-06-14T05:35:06.663Z,29.96
2023-06-14T05:36:08.654Z,28.67
2023-06-14T05:37:06.691Z,47.32
2023-06-14T05:38:06.701Z,59.62
2023-06-14T05:39:06.673Z,66.81
2023-06-14T05:40:06.679Z,75.48
2023-06-14T05:41:06.670Z,79.41
2023-06-14T05:42:06.679Z,88.94
2023-06-14T05:43:06.667Z,105.44
2023-06-14T05:44:06.655Z,108.36
2023-06-14T05:45:06.619Z,113.74
2023-06-14T05:46:05.624Z,118.25
2023-06-14T05:47:06.701Z,123.29
2023-06-14T05:48:06.660Z,127.65
2023-06-14T05:49:06.627Z,127.63
2023-06-14T05:50:06.616Z,126.62
2023-06-14T05:51:05.613Z,127.16
2023-06-14T05:52:06.583Z,131.88
2023-06-14T05:53:06.576Z,134.88
2023-06-14T05:54:06.612Z,136.42
2023-06-14T05:55:06.559Z,138.36
2023-06-14T05:56:06.572Z,139.70
2023-06-14T05:57:06.557Z,135.18
2023-06-14T05:58:05.557Z,134.73
2023-06-14T05:59:05.566Z,138.50
2023-06-14T06:00:06.543Z,142.36
2023-06-14T06:01:06.520Z,142.89
2023-06-14T06:02:06.532Z,146.71
2023-06-14T06:03:06.573Z,149.88
2023-06-14T06:04:06.619Z,146.43
2023-06-14T06:05:06.487Z,120.80
2023-06-14T06:06:05.489Z,114.51
2023-06-14T06:07:06.502Z,107.99
2023-06-14T06:08:06.491Z,106.06
2023-06-14T06:09:06.476Z,110.57
2023-06-14T06:10:06.518Z,115.93
2023-06-14T06:11:06.472Z,121.61
2023-06-14T06:12:05.448Z,123.73
2023-06-14T06:13:05.466Z,122.60
2023-06-14T06:14:06.443Z,127.63
2023-06-14T06:15:06.456Z,120.52
2023-06-14T06:16:06.462Z,120.61
2023-06-14T06:17:06.541Z,125.93
2023-06-14T06:18:06.528Z,125.64
2023-06-14T06:19:06.561Z,129.27
2023-06-14T06:20:06.550Z,136.29
2023-06-14T06:21:06.558Z,136.77
2023-06-14T06:22:05.576Z,133.97
2023-06-14T06:23:06.595Z,135.45
2023-06-14T06:24:06.678Z,139.61
2023-06-14T06:25:05.611Z,138.34
2023-06-14T06:26:05.668Z,143.28
2023-06-14T06:27:05.615Z,148.30
2023-06-14T06:28:06.663Z,153.17
2023-06-14T06:29:06.707Z,155.24
2023-06-14T06:30:06.776Z,153.86
2023-06-14T06:31:06.831Z,157.50
2023-06-14T06:32:06.881Z,155.94
2023-06-14T06:33:06.983Z,148.82
2023-06-14T06:34:06.969Z,155.83
2023-06-14T06:35:07.037Z,156.72
2023-06-14T06:36:07.078Z,158.52
2023-06-14T06:37:06.111Z,150.25
2023-06-14T06:38:07.163Z,151.45
2023-06-14T06:39:07.208Z,158.20
2023-06-14T06:40:07.330Z,157.45
2023-06-14T06:41:07.230Z,157.18
2023-06-14T06:42:07.302Z,157.43
2023-06-14T06:43:07.324Z,155.12
2023-06-14T06:44:06.319Z,153.80
2023-06-14T06:45:06.328Z,150.06
2023-06-14T06:46:07.409Z,146.64
2023-06-14T06:47:07.368Z,154.08
2023-06-14T06:48:06.471Z,157.08
2023-06-14T06:49:06.410Z,154.87
2023-06-14T06:50:07.414Z,157.45
2023-06-14T06:51:07.447Z,156.04
2023-06-14T06:52:06.446Z,156.14
2023-06-14T06:53:07.456Z,161.12
2023-06-14T06:54:07.613Z,173.52
2023-06-14T06:55:07.482Z,179.78
2023-06-14T06:56:07.494Z,184.81
2023-06-14T06:57:07.489Z,193.19
2023-06-14T06:58:06.527Z,198.22
2023-06-14T06:59:07.533Z,201.94
2023-06-14T07:00:06.529Z,207.48
2023-06-14T07:01:07.526Z,209.95
2023-06-14T07:02:07.641Z,212.30
2023-06-14T07:03:06.636Z,214.02
2023-06-14T07:04:07.638Z,219.63
2023-06-14T07:05:06.701Z,220.25
2023-06-14T07:06:07.814Z,222.11
2023-06-14T07:07:07.735Z,223.48
2023-06-14T07:08:07.778Z,227.58
2023-06-14T07:09:07.831Z,230.18
2023-06-14T07:10:07.896Z,231.30
2023-06-14T07:11:07.940Z,231.60
2023-06-14T07:12:07.979Z,233.02
2023-06-14T07:13:10.254Z,234.70
2023-06-14T07:14:08.039Z,237.03
2023-06-14T07:15:07.992Z,237.45
2023-06-14T07:16:08.074Z,235.77
2023-06-14T07:17:08.008Z,235.37
2023-06-14T07:18:08.056Z,237.05
2023-06-14T07:19:08.007Z,237.53
2023-06-14T07:20:07.969Z,238.70
2023-06-14T07:21:07.963Z,238.75
2023-06-14T07:22:07.957Z,241.41
2023-06-14T07:23:06.963Z,241.52
2023-06-14T07:24:07.970Z,241.57
2023-06-14T07:25:06.952Z,242.28
2023-06-14T07:26:06.923Z,242.09
2023-06-14T07:27:07.920Z,241.73
2023-06-14T07:28:07.919Z,244.24
2023-06-14T07:29:07.924Z,241.78
2023-06-14T07:30:08.264Z,245.14
2023-06-14T07:31:07.880Z,246.43
2023-06-14T07:32:07.879Z,245.33
2023-06-14T07:33:08.023Z,245.17
2023-06-14T07:34:06.916Z,245.82
2023-06-14T07:35:07.912Z,246.73
2023-06-14T07:36:07.857Z,246.31
2023-06-14T07:37:06.860Z,245.44
2023-06-14T07:38:06.835Z,247.49
2023-06-14T07:39:06.872Z,246.73
2023-06-14T07:40:07.838Z,248.69
2023-06-14T07:41:07.823Z,246.95
2023-06-14T07:42:06.813Z,248.31
2023-06-14T07:43:07.819Z,247.54
2023-06-14T07:44:07.863Z,248.32
2023-06-14T07:45:07.897Z,250.00
2023-06-14T07:46:08.405Z,248.14
2023-06-14T07:47:07.985Z,249.85
2023-06-14T07:48:08.146Z,211.04
2023-06-14T07:49:08.292Z,214.65
2023-06-14T07:50:08.120Z,164.95
2023-06-14T07:51:08.170Z,135.48
2023-06-14T07:52:08.236Z,119.19
2023-06-14T07:53:08.302Z,89.45
2023-06-14T07:54:07.663Z,73.99
2023-06-14T07:55:08.368Z,52.71
2023-06-14T07:56:08.406Z,37.75
2023-06-14T07:57:08.405Z,25.07
2023-06-14T07:58:08.411Z,24.77
2023-06-14T07:59:08.434Z,26.18
2023-06-14T08:00:07.482Z,25.05
2023-06-14T08:01:07.528Z,25.00
2023-06-14T08:02:08.509Z,26.73
2023-06-14T08:03:07.522Z,26.82
2023-06-14T08:04:08.493Z,22.24
2023-06-14T08:05:08.475Z,29.98
2023-06-14T08:06:08.556Z,32.22
2023-06-14T08:07:07.941Z,26.71
2023-06-14T08:08:08.599Z,26.21
2023-06-14T08:09:08.647Z,27.75
2023-06-14T08:10:08.656Z,24.37
2023-06-14T08:11:08.768Z,31.28
2023-06-14T08:12:07.772Z,25.00
2023-06-14T08:13:08.826Z,31.55
2023-06-14T08:14:08.902Z,28.41
2023-06-14T08:15:14.372Z,25.75
2023-06-14T08:16:08.977Z,20.67
2023-06-14T08:17:07.932Z,15.19
2023-06-14T08:18:07.980Z,14.07
2023-06-14T08:19:08.912Z,1.92
2023-06-14T08:20:07.894Z,0.43
2023-06-14T08:21:08.901Z,14.88
2023-06-14T08:22:08.868Z,19.22
2023-06-14T08:23:08.860Z,24.70
2023-06-14T08:24:07.897Z,32.70
2023-06-14T08:25:08.865Z,31.48
2023-06-14T08:26:08.862Z,33.63
2023-06-14T08:27:09.667Z,36.20
2023-06-14T08:28:08.859Z,33.89
2023-06-14T08:29:08.889Z,30.93
2023-06-14T08:30:07.886Z,32.49
2023-06-14T08:31:08.811Z,32.77
2023-06-14T08:32:08.863Z,33.59
2023-06-14T08:33:16.619Z,35.14
2023-06-14T08:34:08.839Z,35.30
2023-06-14T08:35:08.816Z,36.34
2023-06-14T08:36:07.785Z,38.89
2023-06-14T08:37:08.784Z,37.94
2023-06-14T08:38:08.783Z,38.95
2023-06-14T08:39:07.767Z,37.02
2023-06-14T08:40:07.769Z,36.68
2023-06-14T08:41:08.764Z,33.69
2023-06-14T08:42:13.094Z,32.57
2023-06-14T08:43:08.755Z,25.82
2023-06-14T08:44:08.728Z,23.82
2023-06-14T08:45:09.173Z,19.75
2023-06-14T08:46:08.724Z,22.49
2023-06-14T08:47:08.717Z,21.27
2023-06-14T08:48:07.833Z,26.30
2023-06-14T08:49:08.690Z,25.00
2023-06-14T08:50:19.772Z,25.85
2023-06-14T08:51:08.740Z,25.87
2023-06-14T08:52:08.684Z,25.98
2023-06-14T08:53:08.666Z,27.62
2023-06-14T08:54:08.670Z,26.08
2023-06-14T08:55:08.668Z,25.60
2023-06-14T08:56:08.659Z,31.39
2023-06-14T08:57:07.649Z,27.72
2023-06-14T08:58:08.664Z,27.69
2023-06-14T08:59:08.645Z,25.81
2023-06-14T09:00:08.676Z,28.82
2023-06-14T09:01:08.731Z,29.73
2023-06-14T09:02:13.168Z,24.77
2023-06-14T09:03:08.652Z,24.88
2023-06-14T09:04:08.601Z,25.18
2023-06-14T09:05:07.610Z,24.85
2023-06-14T09:06:08.618Z,23.04
2023-06-14T09:07:08.581Z,26.10
2023-06-14T09:08:08.581Z,24.71
2023-06-14T09:09:08.578Z,28.00
2023-06-14T09:10:08.579Z,27.15
2023-06-14T09:11:08.551Z,25.18
2023-06-14T09:12:07.551Z,30.00
2023-06-14T09:13:08.549Z,29.49
2023-06-14T09:14:08.541Z,31.59
2023-06-14T09:15:08.530Z,30.65
2023-06-14T09:16:08.536Z,29.30
2023-06-14T09:17:07.550Z,30.16
2023-06-14T09:18:07.566Z,32.02
2023-06-14T09:19:08.517Z,31.42
2023-06-14T09:20:08.497Z,29.55
2023-06-14T09:21:08.521Z,32.39
2023-06-14T09:22:08.531Z,28.01
2023-06-14T09:23:08.467Z,28.44
2023-06-14T09:24:08.499Z,25.62
2023-06-14T09:25:08.467Z,25.51
2023-06-14T09:26:07.457Z,28.18
2023-06-14T09:27:07.447Z,26.66
2023-06-14T09:28:08.466Z,25.13
2023-06-14T09:29:08.448Z,24.33
2023-06-14T09:30:08.451Z,24.71
2023-06-14T09:31:08.562Z,28.01
2023-06-14T09:32:08.435Z,24.73
2023-06-14T09:33:08.627Z,27.86
2023-06-14T09:34:08.399Z,25.08
2023-06-14T09:35:08.415Z,26.97
2023-06-14T09:36:08.403Z,26.16
2023-06-14T09:37:08.392Z,29.45
2023-06-14T09:38:08.684Z,27.40
2023-06-14T09:39:07.419Z,26.43
2023-06-14T09:40:08.372Z,25.49
2023-06-14T09:41:07.368Z,27.03
2023-06-14T09:42:08.366Z,29.50
2023-06-14T09:43:08.362Z,30.19
2023-06-14T09:44:10.619Z,33.39
2023-06-14T09:45:08.370Z,33.41
2023-06-14T09:46:08.349Z,31.39
2023-06-14T09:47:08.346Z,31.30
2023-06-14T09:48:08.704Z,28.03
2023-06-14T09:49:08.490Z,28.21
2023-06-14T09:50:08.713Z,28.35
2023-06-14T09:51:08.329Z,37.02
2023-06-14T09:52:08.315Z,37.88
2023-06-14T09:53:08.541Z,41.21
2023-06-14T09:54:08.396Z,42.03
2023-06-14T09:55:09.554Z,35.54
2023-06-14T09:56:08.435Z,33.79
2023-06-14T09:57:08.472Z,36.17
2023-06-14T09:58:09.110Z,42.12
2023-06-14T09:59:08.773Z,42.78
2023-06-14T10:00:08.607Z,43.72
2023-06-14T10:01:07.675Z,43.72
2023-06-14T10:02:08.724Z,44.62
2023-06-14T10:03:08.743Z,46.31
2023-06-14T10:04:11.364Z,44.44
2023-06-14T10:05:08.885Z,41.79
2023-06-14T10:06:08.765Z,40.27
2023-06-14T10:07:07.787Z,38.83
2023-06-14T10:08:07.764Z,43.02
2023-06-14T10:09:07.762Z,42.91
2023-06-14T10:10:08.834Z,41.27
2023-06-14T10:11:08.733Z,38.53
2023-06-14T10:12:07.730Z,42.52
2023-06-14T10:13:07.724Z,40.66
2023-06-14T10:14:08.718Z,38.19
2023-06-14T10:15:07.704Z,35.52
2023-06-14T10:16:07.700Z,39.60
2023-06-14T10:17:08.696Z,38.22
2023-06-14T10:18:08.734Z,37.42
2023-06-14T10:19:08.685Z,43.01
2023-06-14T10:20:08.680Z,40.55
2023-06-14T10:21:08.678Z,47.08
2023-06-14T10:22:07.680Z,41.64
2023-06-14T10:23:08.661Z,36.20
2023-06-14T10:24:08.681Z,38.83
2023-06-14T10:25:08.651Z,34.14
2023-06-14T10:26:07.667Z,33.49
2023-06-14T10:27:07.623Z,41.07
2023-06-14T10:28:08.629Z,45.07
2023-06-14T10:29:08.644Z,44.33
2023-06-14T10:30:08.606Z,44.24
2023-06-14T10:31:07.604Z,46.30
2023-06-14T10:32:08.641Z,47.18
2023-06-14T10:33:08.668Z,38.83
2023-06-14T10:34:08.596Z,40.52
2023-06-14T10:35:08.675Z,41.10
2023-06-14T10:36:07.598Z,47.12
2023-06-14T10:37:08.562Z,47.75
2023-06-14T10:38:08.573Z,44.08
2023-06-14T10:39:07.570Z,43.52
2023-06-14T10:40:07.576Z,46.53
2023-06-14T10:41:07.562Z,45.78
2023-06-14T10:42:07.572Z,41.96
2023-06-14T10:43:08.548Z,44.19
2023-06-14T10:44:07.538Z,39.01
2023-06-14T10:45:07.754Z,39.49
2023-06-14T10:46:08.568Z,41.73
2023-06-14T10:47:08.521Z,44.20
2023-06-14T10:48:08.517Z,48.82
2023-06-14T10:49:07.491Z,52.32
2023-06-14T10:50:07.538Z,54.31
2023-06-14T10:51:08.595Z,53.97
2023-06-14T10:52:08.649Z,53.76
2023-06-14T10:53:07.665Z,56.38
2023-06-14T10:54:08.711Z,54.08
2023-06-14T10:55:08.737Z,46.14
2023-06-14T10:56:08.765Z,41.45
2023-06-14T10:57:08.810Z,43.43
2023-06-14T10:58:08.910Z,46.33
2023-06-14T10:59:07.903Z,46.72
2023-06-14T11:00:07.992Z,48.06
2023-06-14T11:01:07.996Z,47.41
2023-06-14T11:02:09.054Z,48.39
2023-06-14T11:03:09.218Z,48.92
2023-06-14T11:04:09.128Z,50.98
2023-06-14T11:05:09.112Z,52.82
2023-06-14T11:06:09.147Z,61.72
2023-06-14T11:07:09.207Z,68.83
2023-06-14T11:08:09.252Z,63.45
2023-06-14T11:09:09.300Z,62.24
2023-06-14T11:10:09.350Z,56.43
2023-06-14T11:11:10.227Z,58.48
2023-06-14T11:12:09.393Z,54.75
2023-06-14T11:13:08.403Z,53.84
2023-06-14T11:14:08.455Z,50.54
2023-06-14T11:15:08.443Z,52.27
2023-06-14T11:16:09.498Z,57.64
2023-06-14T11:17:09.461Z,57.34
2023-06-14T11:18:09.504Z,66.14
2023-06-14T11:19:09.524Z,77.28
2023-06-14T11:20:09.561Z,89.69
2023-06-14T11:21:09.697Z,100.70
2023-06-14T11:22:09.641Z,105.00
2023-06-14T11:23:09.672Z,103.87
2023-06-14T11:24:08.751Z,113.46
2023-06-14T11:25:09.775Z,126.07
2023-06-14T11:26:09.818Z,123.57
2023-06-14T11:27:09.932Z,107.15
2023-06-14T11:28:09.891Z,96.52
2023-06-14T11:29:09.922Z,88.17
2023-06-14T11:30:09.982Z,69.09
2023-06-14T11:31:10.002Z,60.78
2023-06-14T11:32:10.357Z,59.25
2023-06-14T11:33:09.075Z,55.13
2023-06-14T11:34:10.079Z,58.76
2023-06-14T11:35:10.103Z,54.08
2023-06-14T11:36:10.252Z,54.37
2023-06-14T11:37:10.118Z,56.85
2023-06-14T11:38:09.127Z,64.50
2023-06-14T11:39:09.177Z,72.01
2023-06-14T11:40:09.210Z,80.52
2023-06-14T11:41:10.228Z,91.65
2023-06-14T11:42:10.234Z,100.66
2023-06-14T11:43:10.237Z,110.42
2023-06-14T11:44:10.279Z,123.85
2023-06-14T11:45:10.595Z,131.71
2023-06-14T11:46:10.297Z,141.77
2023-06-14T11:47:10.406Z,145.35
2023-06-14T11:48:10.327Z,148.44
2023-06-14T11:49:10.391Z,150.77
2023-06-14T11:50:10.321Z,156.97
2023-06-14T11:51:10.353Z,163.17
2023-06-14T11:52:09.329Z,164.26
2023-06-14T11:53:10.339Z,166.83
2023-06-14T11:54:10.336Z,164.74
2023-06-14T11:55:10.401Z,168.01
2023-06-14T11:56:10.383Z,167.26
2023-06-14T11:57:10.435Z,166.31
2023-06-14T11:58:10.416Z,171.06
2023-06-14T11:59:09.446Z,170.80
2023-06-14T12:00:10.453Z,171.20
2023-06-14T12:01:10.466Z,173.40
2023-06-14T12:02:10.598Z,171.41
2023-06-14T12:03:09.616Z,172.14
2023-06-14T12:04:10.611Z,171.91
2023-06-14T12:05:09.685Z,170.69
2023-06-14T12:06:10.848Z,170.98
2023-06-14T12:07:11.772Z,172.68
2023-06-14T12:08:09.834Z,169.55
2023-06-14T12:09:09.892Z,168.55
2023-06-14T12:10:10.954Z,169.00
2023-06-14T12:11:10.033Z,170.24
2023-06-14T12:12:10.064Z,170.05
2023-06-14T12:13:11.107Z,168.38
2023-06-14T12:14:10.160Z,169.09
2023-06-14T12:15:11.214Z,167.36
2023-06-14T12:16:11.264Z,169.56
2023-06-14T12:17:10.452Z,170.43
2023-06-14T12:18:11.537Z,167.19
2023-06-14T12:19:11.435Z,166.28
2023-06-14T12:20:10.498Z,166.52
2023-06-14T12:21:11.688Z,165.74
2023-06-14T12:22:11.607Z,168.46
2023-06-14T12:23:11.653Z,180.65
2023-06-14T12:24:12.330Z,193.50
2023-06-14T12:25:11.753Z,195.18
2023-06-14T12:26:12.317Z,189.48
2023-06-14T12:27:11.784Z,186.58
2023-06-14T12:28:11.821Z,184.79
2023-06-14T12:29:11.852Z,184.77
2023-06-14T12:30:11.946Z,184.82
2023-06-14T12:31:11.991Z,190.63
2023-06-14T12:32:12.087Z,197.16
2023-06-14T12:33:12.323Z,202.02
2023-06-14T12:34:11.182Z,207.43
2023-06-14T12:35:11.204Z,210.91
2023-06-14T12:36:12.237Z,208.77
2023-06-14T12:37:11.304Z,211.90
2023-06-14T12:38:11.335Z,214.54
2023-06-14T12:39:12.400Z,217.23